Latest Coastal Weather Observations for Warrnambool

IDV60701

Issued at 7:11 am EST Monday 6 July 2015 (issued every 10 minutes, with the page automatically refreshed every 10 minutes)

About coastal observations | Map of coastal stations | Coastal observations for VIC | Marine services | Other Formats
Station Details ID: 090186 Name: WARRNAMBOOL AIRPORT NDB Lat: -38.29 Lon: 142.45 Height: 70.8 m
Data from the previous 72 hours. | See also: Recent months at Warrnambool
Date/Time
EST
Temp

°C
Wind Pressure Rain
since 9am
mm
Weather Cloud Vis
km
Sea
Height
m
Swell
Dir
 
Speed
knots
Gust
knots
hPa Trend Height
m
Period
s
Dir
06/07:00am 7.3 NNE 9 11 1013.6 - 0.0 - Cloudy 10 - - - -
06/06:30am 7.1 NNE 10 11 1013.5 - 0.0 - Partly cloudy 10 - - - -
06/06:00am 7.4 N 9 11 1013.5 - 0.0 - Cloudy 10 - - - -
06/05:30am 8.2 N 8 11 1013.6 - 0.0 - Cloudy 10 - - - -
06/05:00am 7.6 NNE 8 11 1013.6 - 0.0 - Partly cloudy 10 - - - -
06/04:30am 7.9 NNE 8 9 1013.6 - 0.0 - Partly cloudy 10 - - - -
06/04:00am 8.8 N 9 12 1013.7 - 0.0 - Cloudy 10 - - - -
06/03:30am 8.1 NNE 6 8 1013.9 - 0.0 - Cloudy 10 - - - -
06/03:00am 8.9 N 7 9 1014.1 - 0.0 - Cloudy 10 - - - -
06/02:30am 9.5 N 10 12 1014.2 - 0.0 - Cloudy 10 - - - -
06/02:00am 9.9 N 11 14 1014.2 - 0.0 - Partly cloudy 10 - - - -
06/01:30am 10.5 N 12 15 1014.3 - 0.0 - Partly cloudy 10 - - - -
06/01:00am 10.4 N 12 15 1014.5 - 0.0 - Partly cloudy 10 - - - -
06/12:30am 9.9 N 10 12 1014.7 - 0.0 - Partly cloudy 10 - - - -
06/12:00am 10.3 N 11 13 1015.0 - 0.0 - Cloudy 10 - - - -
 
Date/Time
EST
Temp

°C
Wind Pressure Rain
since 9am
mm
Weather Cloud Vis
km
Sea
Height
m
Swell
Dir
 
Speed
knots
Gust
knots
hPa Trend Height
m
Period
s
Dir
05/11:30pm 10.2 N 10 13 1015.0 - 0.0 - Cloudy 10 - - - -
05/11:00pm 9.3 N 8 11 1015.1 - 0.0 - Partly cloudy 10 - - - -
05/10:30pm 9.3 N 8 9 1015.3 - 0.0 - Partly cloudy 10 - - - -
05/10:00pm 9.8 N 9 11 1015.5 - 0.0 - Partly cloudy 10 - - - -
05/09:30pm 10.1 N 9 11 1015.6 - 0.0 - Partly cloudy 10 - - - -
05/09:00pm 10.1 N 8 10 1015.7 - 0.0 - Cloudy 10 - - - -
05/08:30pm 10.1 N 7 9 1015.8 - 0.0 - Cloudy 10 - - - -
05/08:00pm 11.0 N 9 12 1015.7 - 0.0 - Cloudy 10 - - - -
05/07:30pm 11.2 N 8 10 1015.6 - 0.0 - Cloudy 10 - - - -
05/07:00pm 11.9 N 11 15 1015.7 - 0.0 - Cloudy 10 - - - -
05/06:30pm 11.8 N 11 13 1015.6 - 0.0 - Cloudy 10 - - - -
05/06:00pm 11.8 N 10 13 1015.7 - 0.0 - Cloudy 10 - - - -
05/05:30pm 12.0 N 9 12 1015.6 - 0.0 - Cloudy 10 - - - -
05/05:00pm 12.5 N 10 12 1015.6 - 0.0 - Cloudy 10 - - - -
05/04:30pm 12.9 N 11 13 1015.6 - 0.0 - Cloudy 10 - - - -
05/04:00pm 13.4 NNW 12 17 1015.5 - 0.0 - Partly cloudy 10 - - - -
05/03:30pm 13.5 NNW 13 17 1015.6 - 0.0 - Partly cloudy 10 - - - -
05/03:00pm 13.5 N 14 19 1015.7 - 0.0 - Cloudy 10 - - - -
05/02:30pm 13.5 N 17 22 1015.9 - 0.0 - Partly cloudy 10 - - - -
05/02:00pm 13.5 NNW 13 18 1016.2 - 0.0 - Partly cloudy 10 - - - -
05/01:30pm 13.0 NNW 15 21 1016.4 - 0.0 - Cloudy 10 - - - -
05/01:00pm 12.9 NNW 15 21 1016.8 - 0.0 - Cloudy 10 - - - -
05/12:30pm 12.9 NNW 15 22 1017.1 - 0.0 - Cloudy 10 - - - -
05/12:00pm 12.8 NNW 15 20 1017.3 - 0.0 - Mostly cloudy 10 - - - -
05/11:30am 12.4 N 17 23 1017.6 - 0.0 - Cloudy 10 - - - -
05/11:00am 11.7 NNW 16 21 1018.2 - 0.0 - Cloudy 10 - - - -
05/10:46am 11.6 N 16 26 1018.2 - 0.0 - Cloudy 10 - - - -
05/10:30am 11.4 NNW 17 24 1018.2 - 0.0 - Cloudy 10 - - - -
05/10:00am 10.7 NNW 14 19 1018.5 - 0.0 - Cloudy 10 - - - -
05/09:30am 9.5 NNW 15 20 1018.6 - 0.0 - Cloudy 10 - - - -
05/09:00am 9.2 NNW 15 20 1018.4 - 0.0 - Mostly cloudy 10 - - - -
05/08:30am 9.1 NNW 15 21 1018.4 - 0.0 - Partly cloudy 10 - - - -
05/08:00am 8.9 NNW 14 18 1018.6 - 0.0 - - 10 - - - -
05/07:30am 9.2 NNW 15 19 1018.5 - 0.0 - Cloudy 10 - - - -
05/07:00am 9.1 NNW 15 21 1018.5 - 0.0 - Partly cloudy 10 - - - -
05/06:30am 8.7 NNW 14 18 1018.4 - 0.0 - - 10 - - - -
05/06:00am 8.7 NNW 14 18 1018.4 - 0.0 - Mostly cloudy 10 - - - -
05/05:30am 8.9 NNW 15 20 1018.2 - 0.0 - - 10 - - - -
05/05:00am 8.9 NNW 15 19 1018.1 - 0.0 - - 10 - - - -
05/04:30am 8.8 NNW 13 16 1018.2 - 0.0 - - 10 - - - -
05/04:00am 9.1 NNW 13 16 1018.5 - 0.0 - Cloudy 10 - - - -
05/03:30am 9.5 NNW 13 17 1018.6 - 0.0 - Cloudy 10 - - - -
05/03:00am 9.6 NNW 13 16 1018.9 - 0.0 - Cloudy 10 - - - -
05/02:30am 9.8 NNW 14 17 1018.8 - 0.0 - Cloudy 10 - - - -
05/02:00am 10.0 NNW 15 19 1018.8 - 0.0 - Cloudy 10 - - - -
05/01:30am 10.0 NNW 15 21 1019.0 - 0.0 - Cloudy 10 - - - -
05/01:00am 10.0 NNW 13 17 1019.1 - 0.0 - Cloudy 10 - - - -
05/12:30am 9.9 N 12 15 1019.4 - 0.0 - Cloudy 10 - - - -
05/12:00am 9.7 NNW 10 13 1019.9 - 0.0 - Cloudy 10 - - - -
 
Date/Time
EST
Temp

°C
Wind Pressure Rain
since 9am
mm
Weather Cloud Vis
km
Sea
Height
m
Swell
Dir
 
Speed
knots
Gust
knots
hPa Trend Height
m
Period
s
Dir
04/11:30pm 9.9 N 10 14 1020.0 - 0.0 - Cloudy 10 - - - -
04/11:00pm 9.8 NNW 11 13 1020.3 - 0.0 - Cloudy 10 - - - -
04/10:30pm 9.7 NNW 11 13 1020.4 - 0.0 - Partly cloudy 10 - - - -
04/10:00pm 9.8 NNW 12 15 1020.3 - 0.0 - Partly cloudy 10 - - - -
04/09:30pm 9.6 NNW 11 14 1020.4 - 0.0 - Partly cloudy 10 - - - -
04/09:00pm 9.8 NNW 11 14 1020.6 - 0.0 - Cloudy 10 - - - -
04/08:30pm 9.7 NNW 11 14 1020.7 - 0.0 - Partly cloudy 10 - - - -
04/08:00pm 9.5 NNW 11 15 1020.7 - 0.0 - Cloudy 10 - - - -
04/07:30pm 9.3 NNW 10 13 1020.7 - 0.0 - Cloudy 10 - - - -
04/07:00pm 9.3 NNW 9 12 1020.7 - 0.0 - Cloudy 10 - - - -
04/06:30pm 9.4 N 9 12 1020.6 - 0.0 - Cloudy 10 - - - -
04/06:00pm 9.5 NNW 9 13 1020.6 - 0.0 - Cloudy 10 - - - -
04/05:30pm 9.8 NNW 10 13 1020.6 - 0.0 - Cloudy - - - - -
04/05:00pm 10.1 NNW 10 14 1020.6 - 0.0 - Partly cloudy - - - - -
04/04:30pm 10.4 NNW 11 15 1020.6 - 0.0 - Partly cloudy - - - - -
04/04:00pm 10.8 NNW 12 16 1020.6 - 0.0 - Partly cloudy - - - - -
04/03:30pm 10.9 NNW 12 16 1020.7 - 0.0 - Cloudy 10 - - - -
04/03:00pm 11.0 NW 13 18 1020.7 - 0.0 - Cloudy 10 - - - -
04/02:30pm 11.3 NW 14 18 1020.6 - 0.0 - Partly cloudy 10 - - - -
04/02:00pm 11.5 NW 15 20 1020.7 - 0.0 - Partly cloudy 10 - - - -
04/01:30pm 11.3 NW 14 18 1020.9 - 0.0 - Partly cloudy 10 - - - -
04/01:00pm 10.6 NW 14 18 1021.2 - 0.0 - Cloudy 10 - - - -
04/12:30pm 10.8 NW 13 15 1021.7 - 0.0 - Partly cloudy 10 - - - -
04/12:00pm 10.7 NNW 15 19 1021.8 - 0.0 - Mostly cloudy 10 - - - -
04/11:30am 10.4 NW 13 18 1022.2 - 0.0 - Partly cloudy 10 - - - -
04/11:00am 9.9 NW 14 21 1022.5 - 0.0 - Cloudy 10 - - - -
04/10:30am 9.9 NW 14 19 1022.4 - 0.0 - Partly cloudy 10 - - - -
04/10:00am 9.7 NW 14 19 1022.3 - 0.0 - Partly cloudy 10 - - - -
04/09:30am 9.3 NNW 13 16 1022.1 - 0.0 - Partly cloudy 10 - - - -
04/09:00am 9.1 NW 13 17 1022.0 - 0.0 - Cloudy 10 - - - -
04/08:30am 9.0 NW 13 17 1021.9 - 0.0 - Partly cloudy 10 - - - -
04/08:00am 8.8 NNW 13 18 1021.7 - 0.0 - Partly cloudy 10 - - - -
04/07:30am 8.9 NW 13 17 1021.6 - 0.0 - Partly cloudy 10 - - - -
04/07:00am 9.0 NW 14 18 1021.4 - 0.0 - Partly cloudy 10 - - - -
04/06:30am 8.8 NNW 13 16 1021.3 - 0.0 - Partly cloudy 10 - - - -
04/06:00am 9.0 NNW 13 18 1021.1 - 0.0 - Cloudy 10 - - - -
04/05:30am 8.7 NNW 14 18 1021.1 - 0.0 - Partly cloudy 10 - - - -
04/05:00am 8.6 NNW 14 17 1021.0 - 0.0 - Partly cloudy 10 - - - -
04/04:30am 8.5 NNW 14 18 1021.0 - 0.0 - Partly cloudy 10 - - - -
04/04:00am 8.4 NNW 13 18 1021.3 - 0.0 - Partly cloudy 10 - - - -
04/03:30am 8.3 NNW 14 17 1021.7 - 0.0 - Partly cloudy 10 - - - -
04/03:00am 8.2 NNW 15 19 1021.8 - 0.0 - Cloudy 10 - - - -
04/02:30am 7.9 NNW 13 17 1022.0 - 0.0 - Partly cloudy 10 - - - -
04/02:00am 8.0 NNW 13 16 1022.0 - 0.0 - Partly cloudy 10 - - - -
04/01:30am 8.2 NNW 13 17 1022.3 - 0.0 - Partly cloudy 10 - - - -
04/01:00am 8.1 NNW 13 18 1022.5 - 0.0 - Partly cloudy 10 - - - -
04/12:30am 8.0 NNW 13 17 1022.8 - 0.0 - Partly cloudy 10 - - - -
04/12:00am 7.7 NNW 14 19 1022.9 - 0.0 - Cloudy 10 - - - -
 
Date/Time
EST
Temp

°C
Wind Pressure Rain
since 9am
mm
Weather Cloud Vis
km
Sea
Height
m
Swell
Dir
 
Speed
knots
Gust
knots
hPa Trend Height
m
Period
s
Dir
03/11:30pm 7.6 NNW 13 17 1023.2 - 0.0 - Partly cloudy 10 - - - -
03/11:00pm 7.3 NNW 12 16 1023.4 - 0.0 - - 10 - - - -
03/10:30pm 7.5 NNW 11 14 1023.6 - 0.0 - - 10 - - - -
03/10:00pm 7.6 NNW 11 17 1023.8 - 0.0 - - 10 - - - -
03/09:30pm 7.8 NNW 12 16 1023.8 - 0.0 - Partly cloudy 10 - - - -
03/09:00pm 7.5 NNW 12 15 1024.3 - 0.0 - Cloudy 10 - - - -
03/08:30pm 7.5 NNW 12 15 1024.5 - 0.0 - Partly cloudy 10 - - - -
03/08:00pm 7.4 NNW 11 14 1024.7 - 0.0 - - 10 - - - -
03/07:30pm 7.6 NNW 11 14 1024.7 - 0.0 - Partly cloudy 10 - - - -
03/07:00pm 7.7 N 11 14 1024.6 - 0.0 - Partly cloudy 10 - - - -
03/06:30pm 7.9 N 11 13 1024.7 - 0.0 - Cloudy 10 - - - -
03/06:00pm 7.8 N 9 11 1024.8 - 0.0 - Cloudy 10 - - - -
03/05:30pm 8.2 N 9 12 1025.0 - 0.0 - Cloudy 10 - - - -
03/05:00pm 8.6 NNW 9 11 1025.3 - 0.0 - Cloudy 10 - - - -
03/04:30pm 8.8 NNW 9 12 1025.5 - 0.0 - Cloudy 10 - - - -
03/04:00pm 9.0 N 9 12 1025.4 - 0.0 - Cloudy 10 - - - -
03/03:30pm 9.2 N 10 12 1025.5 - 0.0 - Cloudy 10 - - - -
03/03:00pm 9.2 NNW 11 15 1025.7 - 0.0 - Cloudy 10 - - - -
03/02:30pm 9.7 NNW 12 16 1025.8 - 0.0 - Cloudy 10 - - - -
03/02:00pm 10.0 NNW 13 19 1026.0 - 0.0 - Cloudy 10 - - - -
03/01:30pm 9.7 NNW 13 17 1026.6 - 0.0 - Cloudy 10 - - - -
03/01:00pm 9.9 NNW 13 18 1027.0 - 0.0 - Cloudy 10 - - - -
03/12:30pm 9.6 NW 13 16 1027.4 - 0.0 - Partly cloudy 10 - - - -
03/12:00pm 10.1 NW 12 15 1027.8 - 0.0 - Cloudy 10 - - - -
03/11:30am 9.8 NNW 12 15 1028.3 - 0.0 - Cloudy 10 - - - -
03/11:00am 9.3 NNW 11 14 1028.3 - 0.0 - Cloudy 10 - - - -
03/10:30am 8.7 NNW 8 11 1028.6 - 0.0 - Partly cloudy 10 - - - -
03/10:00am 7.9 N 7 9 1028.8 - 0.0 - Cloudy 10 - - - -
03/09:30am 6.9 N 5 7 1028.8 - 0.0 - Cloudy 10 - - - -
03/09:00am 6.0 N 6 9 1029.0 - 0.2 - Cloudy 10 - - - -
03/08:30am 5.8 NNW 6 8 1029.0 - 0.2 - Cloudy 10 - - - -
03/08:00am 5.7 NW 9 11 1028.9 - 0.2 - Partly cloudy 10 - - - -
03/07:30am 5.3 NW 10 13 1028.8 - 0.2 - Partly cloudy 10 - - - -

Other Formats:

Comma delimited format used in spreadsheet applications
http://www.bom.gov.au/fwo/IDV60701/IDV60701.94837.axf

JavaScript Object Notation format (JSON) in row-major order
http://www.bom.gov.au/fwo/IDV60701/IDV60701.94837.json